Time;durP1;ratioP1;P1;durP2;ratioP2;P2;SDS_P1;SDS_P2;PMS_P1;PMS_P2;Temp;Humidity;BMP_temperature;BMP_pressure;BME280_temperature;BME280_humidity;BME280_pressure;Samples;Min_cycle;Max_cycle;Signal;HPM_P1;HPM_P2
2022/03/23 00:02:18;;;;;;;24.77;17.67;;;12.80;99.90;;;;;;6195910;23;20157;-85
2022/03/23 00:04:44;;;;;;;29.43;17.27;;;12.90;99.90;;;;;;6201716;23;20230;-80
2022/03/23 00:07:10;;;;;;;26.07;17.07;;;13.20;99.90;;;;;;6198448;23;20145;-79
2022/03/23 00:09:36;;;;;;;26.03;17.30;;;13.10;99.90;;;;;;6191141;23;20138;-83
2022/03/23 00:12:02;;;;;;;27.10;18.37;;;13.10;99.90;;;;;;6187621;23;20158;-83
2022/03/23 00:14:27;;;;;;;25.07;17.40;;;13.10;99.90;;;;;;6187610;23;20146;-80
2022/03/23 00:16:53;;;;;;;25.67;17.63;;;13.10;99.90;;;;;;6187349;23;20196;-83
2022/03/23 00:19:19;;;;;;;24.27;17.50;;;13.10;99.90;;;;;;6186558;23;20144;-81
2022/03/23 00:21:44;;;;;;;25.37;16.90;;;13.20;99.90;;;;;;6200714;23;20147;-75
2022/03/23 00:24:10;;;;;;;24.17;18.20;;;13.30;99.90;;;;;;6177136;23;20161;-79
2022/03/23 00:26:36;;;;;;;26.47;18.20;;;13.60;99.90;;;;;;6189788;23;20564;-84
2022/03/23 00:29:03;;;;;;;23.33;17.00;;;13.50;99.90;;;;;;6161350;23;20532;-80
2022/03/23 00:31:29;;;;;;;22.63;16.13;;;13.30;99.90;;;;;;6187296;23;20134;-81
2022/03/23 00:33:55;;;;;;;22.90;16.43;;;12.90;99.90;;;;;;6186436;23;20153;-82
2022/03/23 00:36:21;;;;;;;28.70;17.60;;;12.70;99.90;;;;;;6187396;23;20165;-82
2022/03/23 00:38:47;;;;;;;21.70;16.17;;;12.70;99.90;;;;;;6187348;23;20134;-84
2022/03/23 00:41:13;;;;;;;28.30;16.60;;;12.90;99.90;;;;;;6188277;23;20201;-77
2022/03/23 00:43:39;;;;;;;26.90;16.87;;;12.90;99.90;;;;;;6161611;23;20216;-81
2022/03/23 00:46:05;;;;;;;22.20;17.00;;;12.80;99.90;;;;;;6187373;23;20620;-82
2022/03/23 00:48:32;;;;;;;25.57;16.37;;;12.90;99.90;;;;;;6186973;23;20193;-82
2022/03/23 00:50:58;;;;;;;29.27;17.43;;;12.90;99.90;;;;;;6186872;23;20142;-78
2022/03/23 00:53:24;;;;;;;24.90;18.10;;;13.10;99.90;;;;;;6187841;23;20142;-83
2022/03/23 00:55:50;;;;;;;26.87;17.83;;;13.10;99.90;;;;;;6186993;23;20568;-83
2022/03/23 00:58:16;;;;;;;26.10;17.60;;;13.10;99.90;;;;;;6187077;23;20229;-82
2022/03/23 01:00:43;;;;;;;24.03;17.43;;;12.90;99.90;;;;;;6187406;23;20169;-83
2022/03/23 01:03:10;;;;;;;24.53;17.13;;;12.60;1.00;;;;;;6187325;23;20165;-83
2022/03/23 01:05:36;;;;;;;22.70;17.83;;;12.50;1.00;;;;;;6187303;23;20503;-80
2022/03/23 01:08:02;;;;;;;26.70;17.97;;;12.50;1.00;;;;;;6188570;23;20618;-84
2022/03/23 01:10:28;;;;;;;25.73;17.57;;;12.40;1.00;;;;;;6191799;23;20138;-84
2022/03/23 01:12:54;;;;;;;24.43;16.83;;;12.30;1.00;;;;;;6188209;23;20543;-85
2022/03/23 01:15:20;;;;;;;26.93;18.63;;;12.10;1.00;;;;;;6202693;23;20672;-77
2022/03/23 01:17:46;;;;;;;26.10;17.33;;;12.00;1.00;;;;;;6200102;23;20145;-85
2022/03/23 01:20:14;;;;;;;27.30;17.70;;;12.00;1.00;;;;;;6187459;23;20233;-83
2022/03/23 01:22:42;;;;;;;25.67;16.57;;;12.10;1.00;;;;;;6187255;23;20142;-85
2022/03/23 01:25:09;;;;;;;24.83;16.90;;;12.20;1.00;;;;;;6186755;23;20563;-84
2022/03/23 01:27:36;;;;;;;28.00;16.77;;;12.20;1.00;;;;;;6160415;23;20146;-84
2022/03/23 01:30:05;;;;;;;24.03;17.40;;;12.00;1.00;;;;;;6186876;23;20567;-81
2022/03/23 01:32:31;;;;;;;25.07;16.87;;;11.90;1.00;;;;;;6186807;23;20138;-82
2022/03/23 01:34:57;;;;;;;26.77;17.63;;;11.80;1.00;;;;;;6186852;23;20134;-84
2022/03/23 01:37:23;;;;;;;23.70;16.27;;;11.70;1.00;;;;;;6160462;23;20153;-84
2022/03/23 01:39:49;;;;;;;24.83;16.20;;;11.60;1.00;;;;;;6186318;23;20627;-83
2022/03/23 01:42:14;;;;;;;22.03;16.13;;;11.60;1.00;;;;;;6187103;23;20188;-83
2022/03/23 01:44:40;;;;;;;24.17;16.40;;;11.70;1.00;;;;;;6186489;23;20148;-83
2022/03/23 01:47:09;;;;;;;24.47;16.53;;;11.90;1.00;;;;;;6186498;23;20138;-85
2022/03/23 01:49:37;;;;;;;21.97;17.07;;;11.90;1.00;;;;;;6186642;23;20157;-83
2022/03/23 01:52:06;;;;;;;21.63;16.13;;;11.70;1.00;;;;;;6186908;23;20137;-83
2022/03/23 01:54:32;;;;;;;23.00;16.90;;;11.50;1.00;;;;;;6187457;23;20138;-83
2022/03/23 01:56:59;;;;;;;26.93;15.93;;;11.50;1.00;;;;;;6187056;23;20138;-79
2022/03/23 01:59:26;;;;;;;26.40;17.53;;;11.50;1.00;;;;;;6186509;23;20188;-83
2022/03/23 02:01:53;;;;;;;23.47;16.93;;;11.70;1.00;;;;;;6186520;23;20149;-82
2022/03/23 02:04:19;;;;;;;23.97;16.20;;;11.70;1.00;;;;;;6186709;23;20641;-84
2022/03/23 02:06:45;;;;;;;24.47;17.23;;;11.70;1.00;;;;;;6190554;23;20138;-80
2022/03/23 02:09:11;;;;;;;24.37;17.20;;;11.80;1.00;;;;;;6208152;22;20148;-82
2022/03/23 02:11:39;;;;;;;22.70;16.67;;;11.90;1.00;;;;;;6206697;23;20221;-82
2022/03/23 02:14:05;;;;;;;25.17;17.00;;;11.70;1.00;;;;;;6189911;23;20142;-83
2022/03/23 02:16:38;;;;;;;24.90;17.07;;;11.80;1.00;;;;;;6186592;23;20140;-84
2022/03/23 02:19:04;;;;;;;25.10;17.33;;;11.80;1.00;;;;;;6190205;23;20642;-83
2022/03/23 02:21:30;;;;;;;24.03;16.70;;;11.80;1.00;;;;;;6191407;23;20174;-83
2022/03/23 02:23:56;;;;;;;21.23;16.50;;;11.80;1.00;;;;;;6199713;23;20122;-81
2022/03/23 02:26:23;;;;;;;23.73;17.90;;;11.80;1.00;;;;;;6201529;23;20138;-83
2022/03/23 02:28:50;;;;;;;26.27;17.73;;;11.80;1.00;;;;;;6169952;23;20164;-84
2022/03/23 02:31:16;;;;;;;24.10;16.67;;;11.70;1.00;;;;;;6188311;23;20134;-82
2022/03/23 02:33:42;;;;;;;24.37;16.63;;;11.80;1.00;;;;;;6187544;23;20172;-79
2022/03/23 02:36:07;;;;;;;25.40;17.00;;;11.80;1.00;;;;;;6190921;23;20141;-84
2022/03/23 02:38:34;;;;;;;21.73;17.20;;;11.90;1.00;;;;;;6190388;23;20145;-83
2022/03/23 02:40:59;;;;;;;22.90;16.53;;;11.70;1.00;;;;;;6201706;23;20169;-76
2022/03/23 02:43:25;;;;;;;24.77;16.70;;;11.50;1.00;;;;;;6212397;23;20145;-82
2022/03/23 02:45:50;;;;;;;24.00;17.00;;;11.50;1.00;;;;;;6214604;22;20130;-76
2022/03/23 02:48:18;;;;;;;24.70;17.30;;;11.40;1.00;;;;;;6213919;23;20194;-74
2022/03/23 02:50:44;;;;;;;22.30;17.13;;;11.10;1.00;;;;;;6213519;23;20134;-77
2022/03/23 03:01:54;;;;;;;27.57;19.23;;;10.50;1.00;;;;;;6213837;23;20193;-75
2022/03/23 03:04:21;;;;;;;26.27;18.63;;;10.60;1.00;;;;;;6211276;22;20172;-83
2022/03/23 03:06:47;;;;;;;27.93;19.33;;;10.40;1.00;;;;;;6208766;22;20181;-75
2022/03/23 03:09:14;;;;;;;24.23;18.40;;;10.20;1.00;;;;;;6190209;22;20137;-75
2022/03/23 03:11:43;;;;;;;27.77;19.30;;;10.10;1.00;;;;;;6215267;22;20145;-78
2022/03/23 03:14:09;;;;;;;23.80;18.47;;;10.10;1.00;;;;;;6189697;22;20148;-76
2022/03/23 03:16:35;;;;;;;25.40;18.90;;;10.10;1.00;;;;;;6215021;22;20136;-74
2022/03/23 03:19:00;;;;;;;29.17;18.20;;;10.00;1.00;;;;;;6215059;22;20130;-85
2022/03/23 03:21:27;;;;;;;27.83;19.20;;;10.10;1.00;;;;;;6215449;22;20185;-77
2022/03/23 03:23:53;;;;;;;25.93;19.93;;;10.10;1.00;;;;;;6215378;22;20182;-78
2022/03/23 03:26:19;;;;;;;28.67;19.73;;;9.90;1.00;;;;;;6215504;22;20130;-76
2022/03/23 03:28:45;;;;;;;24.50;19.27;;;9.90;1.00;;;;;;6214716;22;20168;-80
2022/03/23 03:31:13;;;;;;;27.00;19.43;;;10.00;1.00;;;;;;6209015;22;20142;-82
2022/03/23 03:33:39;;;;;;;27.17;19.63;;;10.00;1.00;;;;;;6202229;22;20161;-82
2022/03/23 03:36:06;;;;;;;26.60;18.53;;;10.00;1.00;;;;;;6214978;22;20188;-80
2022/03/23 03:38:33;;;;;;;30.23;19.30;;;10.10;1.00;;;;;;6215032;22;20132;-78
2022/03/23 03:40:59;;;;;;;27.03;18.70;;;10.20;1.00;;;;;;6214405;22;20173;-82
2022/03/23 03:43:25;;;;;;;23.87;19.03;;;10.30;1.00;;;;;;6203739;22;20149;-81
2022/03/23 03:45:52;;;;;;;27.40;19.83;;;10.20;1.00;;;;;;6195382;23;20184;-83
2022/03/23 03:48:18;;;;;;;26.37;19.47;;;10.10;1.00;;;;;;6193457;23;20590;-82
2022/03/23 03:50:44;;;;;;;24.83;18.80;;;10.20;1.00;;;;;;6190092;23;20142;-83
2022/03/23 03:53:10;;;;;;;25.00;19.53;;;10.20;1.00;;;;;;6187924;23;20514;-83
2022/03/23 03:55:37;;;;;;;26.27;19.00;;;10.30;1.00;;;;;;6188067;23;20566;-83
2022/03/23 03:58:04;;;;;;;24.67;17.87;;;10.40;1.00;;;;;;6187873;23;20174;-82
2022/03/23 04:00:30;;;;;;;30.00;19.43;;;10.20;1.00;;;;;;6188574;23;20637;-83
2022/03/23 04:02:59;;;;;;;27.37;19.70;;;10.10;1.00;;;;;;6187371;23;20173;-84
2022/03/23 04:05:25;;;;;;;29.87;20.07;;;10.00;1.00;;;;;;6188756;23;20165;-84
2022/03/23 04:07:50;;;;;;;24.13;18.60;;;10.00;1.00;;;;;;6188108;23;20260;-83
2022/03/23 04:10:16;;;;;;;27.03;19.03;;;9.90;1.00;;;;;;6188076;23;20142;-83
2022/03/23 04:12:43;;;;;;;28.30;20.37;;;9.90;1.00;;;;;;6187640;23;20547;-83
2022/03/23 04:15:09;;;;;;;28.17;20.43;;;9.90;1.00;;;;;;6187837;23;20221;-84
2022/03/23 04:17:35;;;;;;;26.53;20.47;;;9.80;1.00;;;;;;6197243;23;20220;-80
2022/03/23 04:20:01;;;;;;;25.30;18.57;;;9.80;1.00;;;;;;6201118;23;20249;-83
2022/03/23 04:22:27;;;;;;;24.00;19.43;;;9.70;1.00;;;;;;6201843;23;20134;-79
2022/03/23 04:24:53;;;;;;;31.80;18.77;;;9.60;1.00;;;;;;6205140;23;20158;-82
2022/03/23 04:27:19;;;;;;;27.03;18.70;;;9.50;1.00;;;;;;6202770;23;20555;-82
2022/03/23 04:29:45;;;;;;;32.73;18.23;;;9.40;39.50;;;;;;6190044;23;20153;-83
2022/03/23 04:32:11;;;;;;;24.73;18.50;;;9.30;90.00;;;;;;6188497;23;20165;-82
2022/03/23 04:34:37;;;;;;;22.10;17.33;;;9.30;95.30;;;;;;6187662;23;20552;-83
2022/03/23 04:37:03;;;;;;;27.03;19.47;;;9.30;97.80;;;;;;6187951;23;20141;-82
2022/03/23 04:39:29;;;;;;;27.90;18.90;;;9.20;99.90;;;;;;6189921;23;20571;-82
2022/03/23 04:41:54;;;;;;;24.83;19.17;;;9.20;99.90;;;;;;6192041;23;20204;-77
2022/03/23 04:44:21;;;;;;;23.77;19.57;;;9.20;99.90;;;;;;6209196;23;20169;-77
2022/03/23 04:46:47;;;;;;;23.07;18.33;;;9.20;99.90;;;;;;6195814;23;20571;-84
2022/03/23 04:49:14;;;;;;;27.90;19.30;;;9.50;99.90;;;;;;6191954;23;20233;-77
2022/03/23 04:51:41;;;;;;;27.17;17.57;;;9.30;99.90;;;;;;6189190;23;20138;-84
2022/03/23 04:54:06;;;;;;;26.13;18.60;;;9.20;99.90;;;;;;6165029;23;20150;-83
2022/03/23 04:56:33;;;;;;;26.37;19.63;;;9.20;99.90;;;;;;6189455;23;20205;-84
2022/03/23 04:58:59;;;;;;;27.97;20.37;;;9.10;99.90;;;;;;6200100;23;20217;-75
2022/03/23 05:01:25;;;;;;;28.77;20.37;;;9.20;99.90;;;;;;6204587;23;20189;-83
2022/03/23 05:03:52;;;;;;;25.00;18.43;;;9.30;99.90;;;;;;6194479;23;20162;-78
2022/03/23 05:06:19;;;;;;;29.80;19.83;;;9.10;99.90;;;;;;6190944;23;20657;-76
2022/03/23 05:08:45;;;;;;;30.73;20.13;;;9.20;99.90;;;;;;6186939;23;20208;-82
2022/03/23 05:11:11;;;;;;;30.93;19.83;;;9.00;99.90;;;;;;6190676;23;20159;-83
2022/03/23 05:13:37;;;;;;;29.83;19.53;;;9.00;99.90;;;;;;6195635;23;20520;-82
2022/03/23 05:16:03;;;;;;;30.30;21.07;;;9.10;99.90;;;;;;6197237;23;20134;-82
2022/03/23 05:18:29;;;;;;;25.80;18.83;;;9.10;99.90;;;;;;6192381;23;20138;-84
2022/03/23 05:20:55;;;;;;;30.80;20.77;;;9.20;99.90;;;;;;6187662;23;20645;-83
2022/03/23 05:23:20;;;;;;;25.30;19.87;;;9.20;99.90;;;;;;6187480;23;20594;-83
2022/03/23 05:25:46;;;;;;;29.13;19.93;;;9.30;99.90;;;;;;6186794;23;20146;-84
2022/03/23 05:28:13;;;;;;;27.03;19.80;;;9.20;99.90;;;;;;6187395;23;20154;-83
2022/03/23 05:30:39;;;;;;;30.57;20.53;;;9.10;99.90;;;;;;6187153;23;20535;-80
2022/03/23 05:33:05;;;;;;;33.17;22.23;;;9.10;99.90;;;;;;6188587;23;20138;-84
2022/03/23 05:35:31;;;;;;;33.40;22.53;;;9.10;99.90;;;;;;6136210;23;20188;-84
2022/03/23 05:37:57;;;;;;;29.77;21.33;;;9.00;99.90;;;;;;6187965;23;20134;-84
2022/03/23 05:40:23;;;;;;;33.33;22.93;;;9.10;99.90;;;;;;6186929;23;20169;-84
2022/03/23 05:42:49;;;;;;;30.70;22.67;;;9.10;99.90;;;;;;6187498;23;20134;-84
2022/03/23 05:45:16;;;;;;;34.63;23.23;;;9.30;99.90;;;;;;6187127;23;20524;-82
2022/03/23 05:47:43;;;;;;;29.70;22.03;;;9.30;99.90;;;;;;6188075;23;20269;-76
2022/03/23 05:50:10;;;;;;;39.90;22.27;;;9.40;99.90;;;;;;6188966;23;20138;-83
2022/03/23 05:52:37;;;;;;;35.90;23.53;;;9.30;99.90;;;;;;6187181;23;20231;-82
2022/03/23 05:55:05;;;;;;;30.87;21.67;;;9.20;99.90;;;;;;6187848;23;20594;-85
2022/03/23 05:57:31;;;;;;;31.87;22.13;;;9.00;99.90;;;;;;6189076;23;20145;-83
2022/03/23 05:59:56;;;;;;;35.73;22.10;;;8.80;99.90;;;;;;6187170;23;20288;-85
2022/03/23 06:02:22;;;;;;;33.10;21.50;;;8.70;1.00;;;;;;6161775;23;20647;-83
2022/03/23 06:04:48;;;;;;;37.90;21.97;;;8.60;1.00;;;;;;6186999;23;20169;-79
2022/03/23 06:07:14;;;;;;;31.30;22.90;;;8.40;1.00;;;;;;6186974;23;20145;-86
2022/03/23 06:09:40;;;;;;;31.57;21.30;;;8.40;1.00;;;;;;6188095;23;20134;-84
2022/03/23 06:12:07;;;;;;;30.07;22.37;;;8.40;99.00;;;;;;6187298;23;20257;-82
2022/03/23 06:14:34;;;;;;;37.60;23.60;;;8.30;78.40;;;;;;6187453;23;20162;-83
2022/03/23 06:17:00;;;;;;;37.23;23.10;;;8.30;1.00;;;;;;6187636;23;20134;-84
2022/03/23 06:19:26;;;;;;;44.03;24.77;;;8.50;1.00;;;;;;6187366;23;20141;-84
2022/03/23 06:21:51;;;;;;;38.23;24.30;;;8.40;99.90;;;;;;6187366;23;20154;-85
2022/03/23 06:24:17;;;;;;;36.97;24.33;;;8.50;99.90;;;;;;6186932;23;20212;-84
2022/03/23 06:26:43;;;;;;;44.43;27.90;;;8.50;99.90;;;;;;6176165;23;20154;-83
2022/03/23 06:29:08;;;;;;;35.03;23.93;;;8.60;99.90;;;;;;6201796;23;20154;-83
2022/03/23 06:31:34;;;;;;;32.80;22.03;;;8.60;99.90;;;;;;6194538;23;20134;-85
2022/03/23 06:34:00;;;;;;;37.50;22.23;;;8.60;99.90;;;;;;6187151;23;20538;-81
2022/03/23 06:36:26;;;;;;;35.27;22.07;;;8.60;99.90;;;;;;6160317;23;20157;-85
2022/03/23 06:38:52;;;;;;;31.23;20.37;;;8.70;99.90;;;;;;6187732;23;20514;-83
2022/03/23 06:41:18;;;;;;;39.27;21.60;;;8.90;78.30;;;;;;6187355;23;20204;-83
2022/03/23 06:43:43;;;;;;;39.63;22.17;;;9.00;6.50;;;;;;6187042;23;20137;-83
2022/03/23 06:46:09;;;;;;;38.10;22.40;;;9.20;21.40;;;;;;6187395;23;20145;-81
2022/03/23 06:48:35;;;;;;;33.97;22.40;;;9.30;36.10;;;;;;6187333;23;20523;-79
2022/03/23 06:51:01;;;;;;;37.70;21.73;;;9.40;38.00;;;;;;6188299;23;20173;-84
2022/03/23 06:53:26;;;;;;;36.40;22.57;;;9.50;21.60;;;;;;6187163;23;20414;-81
2022/03/23 06:55:53;;;;;;;39.27;22.80;;;9.60;1.00;;;;;;6186948;23;20142;-83
2022/03/23 06:58:19;;;;;;;35.77;22.13;;;9.80;1.00;;;;;;6192581;23;20161;-79
2022/03/23 07:00:44;;;;;;;37.13;21.53;;;9.90;1.00;;;;;;6208200;23;20182;-76
2022/03/23 07:03:10;;;;;;;37.40;22.17;;;9.90;1.00;;;;;;6195436;23;20138;-76
2022/03/23 07:05:37;;;;;;;43.20;22.30;;;10.10;1.00;;;;;;6190454;23;20138;-83
2022/03/23 07:10:48;;;;;;;37.23;23.13;;;10.40;1.00;;;;;;6166040;23;20184;-87
2022/03/23 07:13:14;;;;;;;34.10;21.53;;;10.50;1.00;;;;;;6187368;23;20622;-83
2022/03/23 07:15:42;;;;;;;33.80;21.23;;;10.50;1.00;;;;;;6192863;23;20139;-75
2022/03/23 07:18:09;;;;;;;33.40;21.50;;;10.70;1.00;;;;;;6207538;22;20133;-85
2022/03/23 07:20:35;;;;;;;33.37;22.20;;;10.80;1.00;;;;;;6206180;23;20197;-78
2022/03/23 07:23:06;;;;;;;32.13;21.37;;;11.00;1.00;;;;;;6198310;23;20141;-85
2022/03/23 07:25:32;;;;;;;37.93;22.23;;;11.10;1.00;;;;;;6188979;23;20172;-81
2022/03/23 07:27:58;;;;;;;33.63;21.57;;;11.40;1.00;;;;;;6162258;23;20162;-84
2022/03/23 07:30:25;;;;;;;35.67;21.53;;;11.30;1.00;;;;;;6189082;23;20184;-81
2022/03/23 07:32:52;;;;;;;35.47;22.13;;;11.50;1.00;;;;;;6195415;23;20137;-84
2022/03/23 07:35:18;;;;;;;37.70;22.43;;;11.60;1.00;;;;;;6167569;23;20531;-82
2022/03/23 07:37:44;;;;;;;37.47;22.23;;;11.70;1.00;;;;;;6197034;23;20134;-83
2022/03/23 07:40:10;;;;;;;33.23;22.63;;;11.90;1.00;;;;;;6202875;23;20196;-85
2022/03/23 07:42:36;;;;;;;31.77;22.17;;;12.00;1.00;;;;;;6204825;23;20413;-77
2022/03/23 07:45:02;;;;;;;36.53;22.40;;;12.00;1.00;;;;;;6174467;23;20539;-81
2022/03/23 07:47:33;;;;;;;35.07;22.90;;;12.00;1.00;;;;;;6196905;23;20134;-83
2022/03/23 07:50:07;;;;;;;37.87;22.40;;;12.20;1.00;;;;;;6190275;23;20141;-84
2022/03/23 07:53:00;;;;;;;40.67;22.07;;;12.40;1.00;;;;;;6191452;23;20173;-85
2022/03/23 07:55:27;;;;;;;38.33;22.60;;;12.50;1.00;;;;;;6191020;23;20221;-85
2022/03/23 07:57:53;;;;;;;38.60;22.20;;;12.60;1.00;;;;;;6193621;23;20169;-86
2022/03/23 08:00:21;;;;;;;36.63;21.87;;;12.60;1.00;;;;;;6190766;23;20174;-86
2022/03/23 08:02:47;;;;;;;33.07;24.20;;;12.60;1.00;;;;;;6189030;23;20190;-87
2022/03/23 08:05:13;;;;;;;35.37;23.67;;;12.60;1.00;;;;;;6188714;23;20166;-84
2022/03/23 08:07:38;;;;;;;37.47;23.03;;;12.80;1.00;;;;;;6188460;23;20463;-84
2022/03/23 08:10:05;;;;;;;33.27;22.90;;;13.00;1.00;;;;;;6189444;23;20166;-85
2022/03/23 08:12:31;;;;;;;39.17;25.77;;;12.90;1.00;;;;;;6190061;23;20615;-82
2022/03/23 08:14:57;;;;;;;33.80;22.73;;;13.00;1.00;;;;;;6188629;23;20170;-86
2022/03/23 08:17:22;;;;;;;39.03;24.27;;;13.10;1.00;;;;;;6188352;23;20145;-85
2022/03/23 08:20:32;;;;;;;35.97;24.17;;;13.20;1.00;;;;;;6187118;23;20170;-85
2022/03/23 08:22:35;;;;;;;37.13;23.97;;;13.30;1.00;;;;;;6187843;23;20945;-81
2022/03/23 08:25:01;;;;;;;38.27;24.27;;;13.40;1.00;;;;;;6161478;23;20549;-84
2022/03/23 08:27:26;;;;;;;41.20;23.47;;;13.60;1.00;;;;;;6189586;23;20137;-86
2022/03/23 08:29:52;;;;;;;40.57;25.80;;;13.60;1.00;;;;;;6189593;23;20181;-82
2022/03/23 08:32:18;;;;;;;37.03;24.67;;;13.70;1.00;;;;;;6189082;23;20155;-82
2022/03/23 08:34:45;;;;;;;42.43;25.40;;;13.80;1.00;;;;;;6188615;23;20135;-82
2022/03/23 08:37:10;;;;;;;39.13;25.13;;;13.80;1.00;;;;;;6194679;23;20127;-82
2022/03/23 08:39:36;;;;;;;41.87;25.27;;;13.90;1.00;;;;;;6201628;23;20170;-82
2022/03/23 08:42:02;;;;;;;37.40;25.53;;;14.10;1.00;;;;;;6173320;23;20213;-85
2022/03/23 08:44:27;;;;;;;36.13;25.40;;;14.30;1.00;;;;;;6189382;23;20138;-82
2022/03/23 08:46:56;;;;;;;43.57;26.70;;;14.40;1.00;;;;;;6189028;23;20516;-85
2022/03/23 08:49:22;;;;;;;38.47;25.07;;;14.60;1.00;;;;;;6160845;23;20541;-82
2022/03/23 08:51:47;;;;;;;39.53;25.80;;;14.70;1.00;;;;;;6161242;23;20151;-83
2022/03/23 08:54:13;;;;;;;42.90;25.67;;;14.90;1.00;;;;;;6160258;23;20164;-86
2022/03/23 08:56:39;;;;;;;40.40;26.07;;;15.10;1.00;;;;;;6186778;23;20140;-84
2022/03/23 08:59:05;;;;;;;41.17;25.87;;;15.10;1.00;;;;;;6186544;23;20155;-83
2022/03/23 09:01:30;;;;;;;39.30;25.07;;;15.00;1.00;;;;;;6160300;23;20196;-83
2022/03/23 09:04:00;;;;;;;40.33;26.37;;;15.10;1.00;;;;;;6184954;23;20161;-82
2022/03/23 09:06:26;;;;;;;39.93;25.80;;;15.10;1.00;;;;;;6186414;23;20216;-75
2022/03/23 09:08:54;;;;;;;39.67;25.10;;;15.20;1.00;;;;;;6159615;23;20196;-77
2022/03/23 09:11:19;;;;;;;38.17;24.70;;;15.10;1.00;;;;;;6186485;23;20162;-82
2022/03/23 09:13:47;;;;;;;46.33;27.27;;;15.10;1.00;;;;;;6186273;23;20156;-76
2022/03/23 09:16:12;;;;;;;40.80;25.07;;;15.10;1.00;;;;;;6185520;23;20134;-82
2022/03/23 09:18:38;;;;;;;45.00;25.67;;;15.20;1.00;;;;;;6186782;23;20149;-79
2022/03/23 09:21:04;;;;;;;37.43;25.67;;;15.40;1.00;;;;;;6191544;23;20262;-81
2022/03/23 09:23:29;;;;;;;41.90;26.00;;;15.50;1.00;;;;;;6199667;23;20468;-77
2022/03/23 09:25:56;;;;;;;35.53;24.87;;;15.40;1.00;;;;;;6192393;23;20598;-81
2022/03/23 09:28:22;;;;;;;36.93;25.23;;;15.40;1.00;;;;;;6189045;23;20151;-83
2022/03/23 09:30:50;;;;;;;43.07;27.97;;;15.40;1.00;;;;;;6189323;23;20153;-82
2022/03/23 09:33:16;;;;;;;40.93;26.33;;;15.40;1.00;;;;;;6188690;23;20569;-79
2022/03/23 09:35:43;;;;;;;35.90;25.60;;;15.50;1.00;;;;;;6187939;23;20184;-83
2022/03/23 09:38:12;;;;;;;36.27;25.50;;;15.70;1.00;;;;;;6195159;23;20166;-80
2022/03/23 09:40:39;;;;;;;36.80;25.27;;;15.90;1.00;;;;;;6183276;23;20186;-84
2022/03/23 09:43:08;;;;;;;33.90;24.97;;;16.20;1.00;;;;;;6201182;23;20149;-84
2022/03/23 09:48:11;;;;;;;39.17;25.27;;;16.60;1.00;;;;;;6198483;23;20224;-85
2022/03/23 09:50:46;;;;;;;42.43;25.53;;;16.70;1.00;;;;;;6162234;23;20156;-84
2022/03/23 09:53:12;;;;;;;40.27;24.17;;;16.90;1.00;;;;;;6189658;23;20200;-85
2022/03/23 09:55:38;;;;;;;39.57;25.73;;;17.00;1.00;;;;;;6188709;23;20161;-89
2022/03/23 09:58:06;;;;;;;36.70;24.60;;;17.30;99.90;;;;;;6189644;23;20154;-86
2022/03/23 10:00:41;;;;;;;45.03;26.47;;;17.40;99.90;;;;;;6163968;23;20224;-87
2022/03/23 10:03:12;;;;;;;35.47;25.33;;;17.50;99.90;;;;;;6165656;23;20152;-91
2022/03/23 10:06:12;;;;;;;42.03;24.57;;;17.60;99.90;;;;;;6171474;23;20172;-89
2022/03/23 10:09:15;;;;;;;36.80;24.10;;;17.80;99.90;;;;;;6192683;23;20133;-86
2022/03/23 10:11:56;;;;;;;35.47;23.93;;;17.80;99.90;;;;;;6164394;23;20178;-89
2022/03/23 10:14:53;;;;;;;38.40;25.27;;;17.90;99.90;;;;;;6171689;23;20639;-80
2022/03/23 10:17:38;;;;;;;34.50;24.40;;;18.00;99.90;;;;;;6177164;23;20162;-80
2022/03/23 10:20:03;;;;;;;35.07;24.83;;;17.80;99.90;;;;;;6202984;23;20161;-82
2022/03/23 10:22:30;;;;;;;35.77;25.43;;;17.60;99.90;;;;;;6202983;23;20575;-80
2022/03/23 10:25:05;;;;;;;34.00;24.63;;;17.40;99.90;;;;;;6203930;23;20483;-80
2022/03/23 10:27:33;;;;;;;33.10;24.73;;;17.30;99.90;;;;;;6191760;23;20140;-83
2022/03/23 10:29:59;;;;;;;36.20;24.43;;;17.30;99.90;;;;;;6189034;23;20590;-84
2022/03/23 10:32:34;;;;;;;32.67;24.37;;;17.40;99.90;;;;;;6187497;23;20228;-83
2022/03/23 10:34:59;;;;;;;33.17;24.03;;;17.40;99.90;;;;;;6188519;23;20143;-84
2022/03/23 10:37:29;;;;;;;34.67;24.10;;;17.50;99.90;;;;;;6160524;23;20155;-80
2022/03/23 10:40:00;;;;;;;37.47;24.73;;;17.40;99.90;;;;;;6187491;23;20660;-83
2022/03/23 10:42:32;;;;;;;37.17;24.90;;;17.50;99.90;;;;;;6188374;23;20138;-79
2022/03/23 10:45:17;;;;;;;36.57;25.70;;;17.50;99.90;;;;;;6195835;23;20630;-81
2022/03/23 10:47:44;;;;;;;32.77;24.03;;;17.50;99.90;;;;;;6199961;23;20138;-83
2022/03/23 10:50:13;;;;;;;38.00;26.40;;;17.60;99.90;;;;;;6186105;23;20134;-82
2022/03/23 10:52:55;;;;;;;37.73;25.97;;;17.50;99.90;;;;;;6185694;23;20568;-82
2022/03/23 10:55:23;;;;;;;35.67;24.93;;;17.60;99.90;;;;;;6186066;23;20135;-83
2022/03/23 10:57:52;;;;;;;37.67;25.63;;;17.90;99.90;;;;;;6191449;23;20233;-84
2022/03/23 11:00:27;;;;;;;37.07;25.43;;;18.00;99.90;;;;;;6167856;23;20185;-83
2022/03/23 11:02:53;;;;;;;36.23;25.87;;;18.30;99.90;;;;;;6201420;23;20142;-83
2022/03/23 11:05:39;;;;;;;38.57;25.87;;;18.50;99.90;;;;;;6191435;23;20667;-82
2022/03/23 11:08:08;;;;;;;38.07;24.97;;;18.60;99.90;;;;;;6163042;23;20149;-85
2022/03/23 11:16:56;;;;;;;37.23;24.87;;;18.20;99.90;;;;;;6188747;23;20145;-83
2022/03/23 11:19:26;;;;;;;32.27;24.90;;;18.50;99.90;;;;;;6188814;23;20157;-83
2022/03/23 11:22:11;;;;;;;30.03;23.17;;;18.60;99.90;;;;;;6162412;23;20173;-84
2022/03/23 11:24:42;;;;;;;36.83;25.07;;;18.80;99.90;;;;;;6189084;23;20134;-85
2022/03/23 11:27:17;;;;;;;32.90;23.60;;;19.00;99.90;;;;;;6188528;23;20134;-78
2022/03/23 11:29:43;;;;;;;30.13;23.10;;;19.30;99.90;;;;;;6191202;23;20587;-84
2022/03/23 11:32:15;;;;;;;31.53;21.90;;;19.20;99.90;;;;;;6194750;23;20186;-84
2022/03/23 11:34:44;;;;;;;31.67;23.20;;;19.20;99.90;;;;;;6206094;23;20143;-78
2022/03/23 11:37:12;;;;;;;31.40;22.10;;;19.20;99.90;;;;;;6210218;23;20158;-82
2022/03/23 11:39:42;;;;;;;31.60;20.63;;;19.30;99.90;;;;;;6184992;23;20216;-82
2022/03/23 11:42:08;;;;;;;34.07;21.33;;;19.30;99.90;;;;;;6207350;23;20158;-84
2022/03/23 11:44:40;;;;;;;33.13;21.10;;;19.50;99.90;;;;;;6204332;23;20144;-81
2022/03/23 11:47:41;;;;;;;32.17;21.90;;;19.50;99.90;;;;;;6200522;23;20178;-81
2022/03/23 11:50:25;;;;;;;28.77;20.10;;;19.70;99.90;;;;;;6129950;23;20168;-82
2022/03/23 11:53:33;;;;;;;24.90;18.13;;;19.70;99.90;;;;;;6206805;23;20115;-80
2022/03/23 11:56:01;;;;;;;25.77;17.30;;;19.80;99.90;;;;;;6134679;23;20155;-81
2022/03/23 11:58:38;;;;;;;20.23;14.07;;;19.70;99.90;;;;;;6189398;23;20532;-79
2022/03/23 12:01:12;;;;;;;21.07;14.07;;;19.50;99.90;;;;;;6188339;23;20177;-83
2022/03/23 12:03:40;;;;;;;20.33;15.07;;;19.40;99.90;;;;;;6189354;23;20166;-84
2022/03/23 12:06:12;;;;;;;25.43;16.17;;;19.50;99.90;;;;;;6187352;23;20138;-83
2022/03/23 12:08:48;;;;;;;21.83;13.77;;;19.50;99.90;;;;;;6187087;23;20131;-82
2022/03/23 12:11:49;;;;;;;21.33;14.83;;;19.40;99.90;;;;;;6186671;23;20156;-85
2022/03/23 12:14:23;;;;;;;18.87;13.37;;;19.20;99.90;;;;;;6187817;23;20160;-84
2022/03/23 12:16:49;;;;;;;19.33;14.50;;;19.50;99.90;;;;;;6193922;23;20139;-83
2022/03/23 12:19:32;;;;;;;16.00;10.93;;;19.20;99.90;;;;;;6188057;23;20149;-82
2022/03/23 12:22:00;;;;;;;17.27;11.67;;;19.20;99.90;;;;;;6189281;23;20146;-83
2022/03/23 12:24:35;;;;;;;17.80;12.73;;;19.20;99.90;;;;;;6191211;23;20595;-80
2022/03/23 12:27:14;;;;;;;14.70;10.17;;;19.10;99.90;;;;;;6192193;23;20139;-83
2022/03/23 12:29:44;;;;;;;13.23;10.60;;;19.00;99.90;;;;;;6193018;23;20137;-86
2022/03/23 12:32:12;;;;;;;21.07;13.97;;;19.20;99.90;;;;;;6195988;23;20169;-82
2022/03/23 12:34:40;;;;;;;21.43;12.87;;;19.40;99.90;;;;;;6193501;23;20142;-84
2022/03/23 12:37:16;;;;;;;25.13;13.23;;;19.50;99.90;;;;;;6193255;23;20200;-84
2022/03/23 12:39:47;;;;;;;20.13;14.20;;;19.40;99.90;;;;;;6192799;23;20134;-80
2022/03/23 12:42:12;;;;;;;19.17;12.57;;;19.30;99.90;;;;;;6189938;23;20227;-85
2022/03/23 12:45:04;;;;;;;17.63;12.23;;;19.40;99.90;;;;;;6188195;23;20191;-85
2022/03/23 12:47:58;;;;;;;17.20;10.83;;;19.60;99.90;;;;;;6190038;23;20153;-81
2022/03/23 12:59:11;;;;;;;14.63;9.87;;;19.50;99.90;;;;;;6172005;23;20164;-82
2022/03/23 13:01:40;;;;;;;16.07;10.30;;;19.50;99.90;;;;;;6189889;23;20178;-84
2022/03/23 13:04:06;;;;;;;16.77;11.20;;;19.60;99.90;;;;;;6191511;23;20166;-83
2022/03/23 13:06:37;;;;;;;21.03;11.40;;;19.70;99.90;;;;;;6163624;23;20162;-81
2022/03/23 13:09:10;;;;;;;16.10;10.40;;;19.50;99.90;;;;;;6190787;23;20137;-84
2022/03/23 13:11:36;;;;;;;15.20;10.40;;;19.70;99.90;;;;;;6161472;23;20277;-83